Terminal Aerodrome Forecast
Issued by NWS

Home | Current Version | Previous Version | Text Only | Print | Product List | Glossary Off
Versions: 1 2 3 4 5 6 7 8 9 10 11 12 13 14

000
FTUS43 KTOP 271700
TAFMHK
TAF
KMHK 271721Z 2718/2818 34010G18KT P6SM BKN200
     FM280000 34010KT P6SM BKN150
     FM280300 31004KT P6SM BKN150
     FM281500 34011KT P6SM SCT200=

USA.gov is the U.S. government's official web portal to all federal, state and local government web resources and services.